Port Orchard, Washington
Current Conditions -  °F | °C
As of 3:15 AM on Sunday 23 Nov 2014 (Local Time) from KPWT Reporting Station
Broken Clouds Broken Clouds  
Wind Chill: 38°   Ceiling: 3700
Heat Index: 45°   Visibility: 10mi
Dew Point: 45°   Wind: 13mph
Humidity: 100%   Direction: 170°S
Pressure: 30.15"   Gusts: 18mph
Location:  47.53°N, 122.64°W
Report Text: KPWT 231115Z AUTO 17011G16KT 10SM FEW008 SCT020 BKN037 07/07 A3015 RMK AO1 P0001
Loading
Personal Weather Stations






























Interactive Weather Map New forecast layout! Learn more

10-Day Weather Forecast

Advertisements
Track Severe Weather on mobile